Time;durP1;ratioP1;P1;durP2;ratioP2;P2;SDS_P1;SDS_P2;PMS_P1;PMS_P2;Temp;Humidity;BMP_temperature;BMP_pressure;BME280_temperature;BME280_humidity;BME280_pressure;Samples;Min_cycle;Max_cycle;Signal;HPM_P1;HPM_P2
2023/07/23 00:00:41;;;;;;;22.70;16.40;;;;;;;;;;10525761;28;20047;-81
2023/07/23 00:05:44;;;;;;;20.13;14.27;;;;;;;;;;10514293;28;20044;-81
2023/07/23 00:10:45;;;;;;;20.70;14.15;;;;;;;;;;10550742;28;20807;-82
2023/07/23 00:15:46;;;;;;;19.08;12.75;;;;;;;;;;10551247;28;20166;-80
2023/07/23 00:20:47;;;;;;;22.10;14.50;;;;;;;;;;10557966;28;20039;-80
2023/07/23 00:25:48;;;;;;;20.90;15.15;;;;;;;;;;10543185;28;20688;-81
2023/07/23 00:30:50;;;;;;;18.90;13.63;;;;;;;;;;10556267;28;20426;-82
2023/07/23 00:35:51;;;;;;;21.58;14.50;;;;;;;;;;10542320;28;20080;-81
2023/07/23 00:40:54;;;;;;;22.20;14.00;;;;;;;;;;10553842;28;20040;-81
2023/07/23 00:45:55;;;;;;;21.98;15.88;;;;;;;;;;10557979;28;20042;-81
2023/07/23 00:50:56;;;;;;;23.55;16.88;;;;;;;;;;10566381;28;20039;-81
2023/07/23 00:55:59;;;;;;;25.48;18.08;;;;;;;;;;10565728;28;20105;-82
2023/07/23 01:01:00;;;;;;;26.60;18.67;;;;;;;;;;10539889;28;20028;-81
2023/07/23 01:06:02;;;;;;;35.10;27.30;;;;;;;;;;10550197;28;20055;-80
2023/07/23 01:11:03;;;;;;;37.97;28.30;;;;;;;;;;10565844;28;20594;-81
2023/07/23 01:16:07;;;;;;;37.05;30.33;;;;;;;;;;10565690;28;20028;-81
2023/07/23 01:21:10;;;;;;;39.67;32.03;;;;;;;;;;10569726;28;20141;-81
2023/07/23 01:26:11;;;;;;;33.78;27.08;;;;;;;;;;10544602;28;20024;-81
2023/07/23 01:31:15;;;;;;;33.10;26.35;;;;;;;;;;10549869;28;20032;-82
2023/07/23 01:36:17;;;;;;;31.77;24.20;;;;;;;;;;10573038;28;20480;-82
2023/07/23 01:41:18;;;;;;;25.70;19.33;;;;;;;;;;10555496;28;20035;-81
2023/07/23 01:46:19;;;;;;;29.98;19.60;;;;;;;;;;10553635;28;20039;-83
2023/07/23 01:51:20;;;;;;;23.90;18.63;;;;;;;;;;10556266;28;20363;-81
2023/07/23 01:56:21;;;;;;;21.48;16.30;;;;;;;;;;10542214;28;20038;-81
2023/07/23 02:01:22;;;;;;;21.27;15.75;;;;;;;;;;10546496;28;20031;-80
2023/07/23 02:06:23;;;;;;;24.65;17.00;;;;;;;;;;10571278;28;20069;-82
2023/07/23 02:11:24;;;;;;;21.25;15.55;;;;;;;;;;10561795;28;20028;-81
2023/07/23 02:16:26;;;;;;;28.13;18.35;;;;;;;;;;10532002;28;20036;-81
2023/07/23 02:21:26;;;;;;;24.95;17.30;;;;;;;;;;10571403;28;20046;-81
2023/07/23 02:26:27;;;;;;;23.52;16.50;;;;;;;;;;10553453;28;20097;-81
2023/07/23 02:31:28;;;;;;;26.60;17.58;;;;;;;;;;10536651;28;20061;-82
2023/07/23 02:36:31;;;;;;;26.00;16.88;;;;;;;;;;10559784;28;20033;-82
2023/07/23 02:41:32;;;;;;;21.17;15.32;;;;;;;;;;10549122;28;20089;-81
2023/07/23 02:46:33;;;;;;;22.52;15.25;;;;;;;;;;10556064;28;20035;-81
2023/07/23 02:51:34;;;;;;;24.42;17.10;;;;;;;;;;10561715;28;20016;-81
2023/07/23 02:56:35;;;;;;;22.65;16.35;;;;;;;;;;10544609;28;20063;-81
2023/07/23 03:01:36;;;;;;;23.95;16.88;;;;;;;;;;10562598;28;20197;-81
2023/07/23 03:06:37;;;;;;;26.08;17.67;;;;;;;;;;10548576;28;20800;-82
2023/07/23 03:11:38;;;;;;;23.60;17.40;;;;;;;;;;10571862;28;20032;-81
2023/07/23 03:16:39;;;;;;;23.48;16.83;;;;;;;;;;10556696;28;20031;-83
2023/07/23 03:21:40;;;;;;;29.92;20.20;;;;;;;;;;10554421;28;20043;-82
2023/07/23 03:26:41;;;;;;;22.83;17.92;;;;;;;;;;10548233;28;20638;-81
2023/07/23 03:31:42;;;;;;;23.02;17.33;;;;;;;;;;10550770;28;20080;-81
2023/07/23 03:36:43;;;;;;;26.83;18.33;;;;;;;;;;10543548;28;20668;-81
2023/07/23 03:41:46;;;;;;;23.58;17.95;;;;;;;;;;10571098;28;20054;-81
2023/07/23 03:46:59;;;;;;;29.40;20.33;;;;;;;;;;10562222;28;20035;-81
2023/07/23 03:52:00;;;;;;;26.65;18.42;;;;;;;;;;10556647;28;20035;-81
2023/07/23 03:57:02;;;;;;;22.30;16.88;;;;;;;;;;10555154;28;20032;-81
2023/07/23 04:02:03;;;;;;;24.98;17.30;;;;;;;;;;10533537;28;20052;-82
2023/07/23 04:07:05;;;;;;;24.23;17.05;;;;;;;;;;10522473;22;20173;-82
2023/07/23 04:12:06;;;;;;;30.70;20.27;;;;;;;;;;10511817;28;20025;-83
2023/07/23 04:17:07;;;;;;;33.05;23.17;;;;;;;;;;10484475;28;20036;-82
2023/07/23 04:22:08;;;;;;;30.23;22.25;;;;;;;;;;10484979;28;20044;-83
2023/07/23 04:27:09;;;;;;;29.80;22.70;;;;;;;;;;10484356;28;20040;-82
2023/07/23 04:32:10;;;;;;;30.23;22.88;;;;;;;;;;10476775;28;20495;-82
2023/07/23 04:37:13;;;;;;;29.65;20.60;;;;;;;;;;10470392;28;20127;-84
2023/07/23 04:42:14;;;;;;;29.08;20.08;;;;;;;;;;10481597;28;20063;-81
2023/07/23 04:47:15;;;;;;;28.08;20.40;;;;;;;;;;10475270;28;20036;-81
2023/07/23 04:52:16;;;;;;;22.23;16.65;;;;;;;;;;10484481;28;20492;-82
2023/07/23 04:57:17;;;;;;;25.38;19.08;;;;;;;;;;10485558;28;20060;-81
2023/07/23 05:02:18;;;;;;;20.77;16.52;;;;;;;;;;10472892;28;20036;-83
2023/07/23 05:07:19;;;;;;;20.75;16.50;;;;;;;;;;10477739;28;20781;-81
2023/07/23 05:12:20;;;;;;;20.83;15.25;;;;;;;;;;10485193;28;20020;-82
2023/07/23 05:17:21;;;;;;;22.65;16.38;;;;;;;;;;10475133;28;20583;-81
2023/07/23 05:22:22;;;;;;;19.63;15.30;;;;;;;;;;10484353;28;20025;-81
2023/07/23 05:27:23;;;;;;;23.23;16.02;;;;;;;;;;10484818;28;20040;-81
2023/07/23 05:32:24;;;;;;;19.90;15.05;;;;;;;;;;10483546;28;20388;-82
2023/07/23 05:37:25;;;;;;;24.50;16.77;;;;;;;;;;10483580;28;20047;-82
2023/07/23 05:42:26;;;;;;;55.20;39.08;;;;;;;;;;10484036;28;20029;-81
2023/07/23 05:47:27;;;;;;;27.52;22.25;;;;;;;;;;10479454;28;20032;-83
2023/07/23 05:52:28;;;;;;;20.83;17.38;;;;;;;;;;10478376;28;20922;-82
2023/07/23 05:57:29;;;;;;;21.83;18.10;;;;;;;;;;10490946;28;20117;-81
2023/07/23 06:02:30;;;;;;;19.95;14.18;;;;;;;;;;10475548;28;20191;-83
2023/07/23 06:07:31;;;;;;;18.85;13.20;;;;;;;;;;10481050;28;20056;-81
2023/07/23 06:12:33;;;;;;;17.27;12.52;;;;;;;;;;10481952;28;20025;-81
2023/07/23 06:17:34;;;;;;;16.05;11.82;;;;;;;;;;10483752;28;20042;-82
2023/07/23 06:22:35;;;;;;;16.42;10.90;;;;;;;;;;10487517;28;20369;-83
2023/07/23 06:27:36;;;;;;;14.55;11.32;;;;;;;;;;10487868;28;20249;-82
2023/07/23 06:32:37;;;;;;;13.23;9.77;;;;;;;;;;10475045;28;20044;-84
2023/07/23 06:37:40;;;;;;;12.40;9.98;;;;;;;;;;10486551;28;20052;-83
2023/07/23 06:42:41;;;;;;;13.25;9.20;;;;;;;;;;10485215;28;20206;-84
2023/07/23 06:47:42;;;;;;;13.07;9.40;;;;;;;;;;10488215;28;20174;-83
2023/07/23 06:52:43;;;;;;;13.52;9.07;;;;;;;;;;10470212;28;20043;-83
2023/07/23 06:57:44;;;;;;;13.45;8.95;;;;;;;;;;10485800;28;20480;-83
2023/07/23 07:02:45;;;;;;;13.63;9.82;;;;;;;;;;10477754;28;20035;-83
2023/07/23 07:07:46;;;;;;;11.20;7.45;;;;;;;;;;10487194;28;20067;-84
2023/07/23 07:12:47;;;;;;;9.00;7.32;;;;;;;;;;10487454;28;20107;-85
2023/07/23 07:17:48;;;;;;;10.68;7.72;;;;;;;;;;10477486;28;20083;-85
2023/07/23 07:22:49;;;;;;;9.43;6.45;;;;;;;;;;10488354;28;20020;-84
2023/07/23 07:27:50;;;;;;;8.80;6.35;;;;;;;;;;10475550;28;20092;-84
2023/07/23 07:32:53;;;;;;;7.13;5.65;;;;;;;;;;10480990;28;20102;-86
2023/07/23 07:37:54;;;;;;;8.75;5.72;;;;;;;;;;10469492;28;20054;-83
2023/07/23 07:42:55;;;;;;;7.82;5.53;;;;;;;;;;10484365;28;20029;-83
2023/07/23 07:47:56;;;;;;;10.15;6.13;;;;;;;;;;10478684;28;20059;-86
2023/07/23 07:52:57;;;;;;;7.95;5.32;;;;;;;;;;10486462;28;20480;-84
2023/07/23 07:57:58;;;;;;;8.38;5.70;;;;;;;;;;10478216;28;20112;-86
2023/07/23 08:02:59;;;;;;;7.70;5.40;;;;;;;;;;10472191;28;20067;-86
2023/07/23 08:08:00;;;;;;;6.82;5.60;;;;;;;;;;10475656;28;20053;-87
2023/07/23 08:13:02;;;;;;;7.03;5.68;;;;;;;;;;10480586;28;20464;-84
2023/07/23 08:18:03;;;;;;;7.38;5.75;;;;;;;;;;10474467;28;20785;-84
2023/07/23 08:23:04;;;;;;;8.98;4.93;;;;;;;;;;10477845;28;20056;-86
2023/07/23 08:28:06;;;;;;;8.60;5.72;;;;;;;;;;10482635;28;20033;-85
2023/07/23 08:33:07;;;;;;;7.43;4.70;;;;;;;;;;10464675;28;20037;-85
2023/07/23 08:38:08;;;;;;;6.95;5.03;;;;;;;;;;10473723;28;20051;-84
2023/07/23 08:43:18;;;;;;;10.85;4.60;;;;;;;;;;10484114;28;20405;-83
2023/07/23 08:48:20;;;;;;;7.45;4.85;;;;;;;;;;10478048;28;20090;-85
2023/07/23 08:53:21;;;;;;;6.20;4.35;;;;;;;;;;10482513;28;20035;-84
2023/07/23 08:58:22;;;;;;;6.00;3.90;;;;;;;;;;10465306;28;20040;-85
2023/07/23 09:03:23;;;;;;;5.50;4.00;;;;;;;;;;10466824;28;20028;-87
2023/07/23 09:08:24;;;;;;;4.65;3.20;;;;;;;;;;10478364;28;20642;-89
2023/07/23 09:13:33;;;;;;;7.28;3.42;;;;;;;;;;10465133;28;20032;-87
2023/07/23 09:18:39;;;;;;;5.38;3.35;;;;;;;;;;10474455;28;20041;-86
2023/07/23 09:23:40;;;;;;;5.95;2.85;;;;;;;;;;10487774;28;20073;-87
2023/07/23 09:28:41;;;;;;;5.25;2.90;;;;;;;;;;10465009;28;20867;-86
2023/07/23 09:33:42;;;;;;;6.10;3.35;;;;;;;;;;10464648;28;20043;-86
2023/07/23 09:38:52;;;;;;;4.78;2.63;;;;;;;;;;10488151;28;20480;-86
2023/07/23 09:43:53;;;;;;;4.57;2.45;;;;;;;;;;10472530;28;20043;-85
2023/07/23 09:48:54;;;;;;;4.05;2.45;;;;;;;;;;10491538;28;20377;-88
2023/07/23 09:53:59;;;;;;;3.78;2.55;;;;;;;;;;10490588;28;20381;-86
2023/07/23 09:59:00;;;;;;;5.80;2.60;;;;;;;;;;10490468;28;20040;-85
2023/07/23 10:04:01;;;;;;;4.50;2.63;;;;;;;;;;10471525;28;20064;-87
2023/07/23 10:09:03;;;;;;;3.97;2.55;;;;;;;;;;10491562;28;20059;-85
2023/07/23 10:14:04;;;;;;;4.47;2.35;;;;;;;;;;10490991;28;20445;-86
2023/07/23 10:19:06;;;;;;;4.85;2.67;;;;;;;;;;10471912;28;20078;-85
2023/07/23 10:24:07;;;;;;;5.03;2.95;;;;;;;;;;10489747;28;20130;-85
2023/07/23 10:29:12;;;;;;;4.20;3.20;;;;;;;;;;10489149;28;20081;-86
2023/07/23 10:34:22;;;;;;;4.90;2.92;;;;;;;;;;10474061;28;20033;-85
2023/07/23 10:39:23;;;;;;;4.88;2.97;;;;;;;;;;10498288;28;20384;-86
2023/07/23 10:44:30;;;;;;;3.25;2.35;;;;;;;;;;10479079;28;20524;-87
2023/07/23 10:49:31;;;;;;;4.80;2.90;;;;;;;;;;10485751;28;20036;-85
2023/07/23 10:54:33;;;;;;;6.45;2.97;;;;;;;;;;10489391;28;20572;-85
2023/07/23 10:59:34;;;;;;;4.47;2.75;;;;;;;;;;10488172;28;20048;-85
2023/07/23 11:04:36;;;;;;;6.38;2.83;;;;;;;;;;10486118;28;20041;-85
2023/07/23 11:09:37;;;;;;;6.07;2.53;;;;;;;;;;10486515;28;20033;-86
2023/07/23 11:14:38;;;;;;;3.03;2.25;;;;;;;;;;10475806;28;20132;-85
2023/07/23 11:19:45;;;;;;;5.45;2.90;;;;;;;;;;10480997;28;20032;-87
2023/07/23 11:24:47;;;;;;;4.25;2.63;;;;;;;;;;10486732;28;20523;-84
2023/07/23 11:29:48;;;;;;;4.45;2.78;;;;;;;;;;10484503;28;20496;-87
2023/07/23 11:34:49;;;;;;;5.20;3.08;;;;;;;;;;10460593;28;20032;-86
2023/07/23 11:39:54;;;;;;;5.60;2.83;;;;;;;;;;10480881;28;20502;-87
2023/07/23 11:45:03;;;;;;;3.47;2.55;;;;;;;;;;10461490;28;20048;-88
2023/07/23 11:50:04;;;;;;;5.00;2.42;;;;;;;;;;10463679;28;20039;-88
2023/07/23 11:55:05;;;;;;;4.45;2.70;;;;;;;;;;10481114;28;20033;-86
2023/07/23 12:00:07;;;;;;;5.20;3.00;;;;;;;;;;10481312;28;20032;-83
2023/07/23 12:05:09;;;;;;;6.82;2.75;;;;;;;;;;10474132;28;20059;-84
2023/07/23 12:10:12;;;;;;;4.38;3.03;;;;;;;;;;10460676;28;20067;-87
2023/07/23 12:15:16;;;;;;;4.73;2.67;;;;;;;;;;10456432;28;20073;-85
2023/07/23 12:20:18;;;;;;;6.45;2.72;;;;;;;;;;10476760;28;20130;-87
2023/07/23 12:25:19;;;;;;;3.65;2.70;;;;;;;;;;10474002;28;20032;-85
2023/07/23 12:30:20;;;;;;;5.75;2.80;;;;;;;;;;10475176;28;20028;-88
2023/07/23 12:35:21;;;;;;;5.35;3.40;;;;;;;;;;10482492;28;20506;-88
2023/07/23 12:40:22;;;;;;;3.80;2.90;;;;;;;;;;10460892;28;20045;-86
2023/07/23 12:45:23;;;;;;;4.60;2.72;;;;;;;;;;10462022;28;20575;-87
2023/07/23 12:50:24;;;;;;;3.42;2.47;;;;;;;;;;10482068;28;20036;-87
2023/07/23 12:55:25;;;;;;;5.25;2.60;;;;;;;;;;10466834;28;20476;-86
2023/07/23 13:00:26;;;;;;;4.55;3.05;;;;;;;;;;10480597;28;20028;-87
2023/07/23 13:05:27;;;;;;;4.57;2.42;;;;;;;;;;10482640;28;20065;-86
2023/07/23 13:10:28;;;;;;;4.50;2.58;;;;;;;;;;10479669;28;20616;-87
2023/07/23 13:15:29;;;;;;;5.03;2.92;;;;;;;;;;10464593;28;20438;-85
2023/07/23 13:20:30;;;;;;;3.30;2.60;;;;;;;;;;10478034;28;20090;-87
2023/07/23 13:25:31;;;;;;;3.60;2.90;;;;;;;;;;10461190;28;20477;-86
2023/07/23 13:30:32;;;;;;;3.55;2.80;;;;;;;;;;10474631;28;20032;-87
2023/07/23 13:35:33;;;;;;;4.40;2.90;;;;;;;;;;10466361;28;20029;-86
2023/07/23 13:40:34;;;;;;;4.03;3.08;;;;;;;;;;10462339;28;20044;-87
2023/07/23 13:45:36;;;;;;;5.78;3.67;;;;;;;;;;10482471;28;20070;-87
2023/07/23 13:50:37;;;;;;;4.22;3.40;;;;;;;;;;10482876;28;20107;-86
2023/07/23 13:55:38;;;;;;;7.07;3.65;;;;;;;;;;10483650;28;20046;-87
2023/07/23 14:00:39;;;;;;;5.95;4.00;;;;;;;;;;10482312;28;20074;-86
2023/07/23 14:05:40;;;;;;;11.90;6.00;;;;;;;;;;10484600;28;20060;-86
2023/07/23 14:10:41;;;;;;;4.35;3.15;;;;;;;;;;10469070;28;20028;-87
2023/07/23 14:15:42;;;;;;;4.32;2.97;;;;;;;;;;10455917;28;20037;-87
2023/07/23 14:20:43;;;;;;;5.82;3.38;;;;;;;;;;10465985;28;20037;-87
2023/07/23 14:25:44;;;;;;;4.30;3.15;;;;;;;;;;10482360;28;20041;-86
2023/07/23 14:30:47;;;;;;;6.65;3.20;;;;;;;;;;10456416;28;20041;-86
2023/07/23 14:35:50;;;;;;;6.63;3.80;;;;;;;;;;10459167;28;20081;-88
2023/07/23 14:40:52;;;;;;;4.38;3.50;;;;;;;;;;10482897;28;20068;-88
2023/07/23 14:45:53;;;;;;;5.22;3.15;;;;;;;;;;10469481;28;20055;-87
2023/07/23 14:50:54;;;;;;;6.50;3.30;;;;;;;;;;10470627;28;20447;-87
2023/07/23 14:55:56;;;;;;;4.22;2.83;;;;;;;;;;10452824;28;20064;-88
2023/07/23 15:00:56;;;;;;;3.45;2.50;;;;;;;;;;10457595;28;20113;-87
2023/07/23 15:05:57;;;;;;;6.18;3.30;;;;;;;;;;10485834;28;20052;-87
2023/07/23 15:10:59;;;;;;;6.55;2.95;;;;;;;;;;10475591;28;20051;-86
2023/07/23 15:16:00;;;;;;;6.55;3.42;;;;;;;;;;10471944;28;20056;-86
2023/07/23 15:21:01;;;;;;;4.15;3.10;;;;;;;;;;10483931;28;20431;-87
2023/07/23 15:26:04;;;;;;;6.13;3.50;;;;;;;;;;10479754;28;20056;-86
2023/07/23 15:31:05;;;;;;;4.63;3.20;;;;;;;;;;10469067;28;20035;-88
2023/07/23 15:36:06;;;;;;;4.38;3.22;;;;;;;;;;10453712;28;20032;-85
2023/07/23 15:41:07;;;;;;;6.38;3.60;;;;;;;;;;10482933;28;20408;-88
2023/07/23 15:46:08;;;;;;;4.65;3.10;;;;;;;;;;10470693;28;20059;-86
2023/07/23 15:51:09;;;;;;;5.13;3.40;;;;;;;;;;10468798;28;20028;-86
2023/07/23 15:56:10;;;;;;;5.72;3.40;;;;;;;;;;10475651;28;20112;-86
2023/07/23 16:01:11;;;;;;;4.68;3.40;;;;;;;;;;10472169;28;20085;-87
2023/07/23 16:06:12;;;;;;;5.28;3.22;;;;;;;;;;10445540;28;20052;-87
2023/07/23 16:11:13;;;;;;;5.22;3.28;;;;;;;;;;10464624;28;20024;-87
2023/07/23 16:16:14;;;;;;;4.90;3.50;;;;;;;;;;10462061;28;20370;-87
2023/07/23 16:21:15;;;;;;;4.30;2.90;;;;;;;;;;10481755;28;20472;-86
2023/07/23 16:26:17;;;;;;;4.50;3.45;;;;;;;;;;10457263;28;20028;-85
2023/07/23 16:31:18;;;;;;;4.25;3.15;;;;;;;;;;10484194;28;20036;-86
2023/07/23 16:36:19;;;;;;;4.32;2.83;;;;;;;;;;10477379;28;20552;-87
2023/07/23 16:41:20;;;;;;;6.28;3.35;;;;;;;;;;10470815;28;20119;-89
2023/07/23 16:46:24;;;;;;;4.55;2.97;;;;;;;;;;10449150;28;20043;-86
2023/07/23 16:51:25;;;;;;;4.93;3.30;;;;;;;;;;10479084;28;20162;-87
2023/07/23 16:56:26;;;;;;;5.50;3.55;;;;;;;;;;10471562;28;20040;-88
2023/07/23 17:01:29;;;;;;;7.60;3.55;;;;;;;;;;10478419;28;20051;-86
2023/07/23 17:06:30;;;;;;;6.65;3.17;;;;;;;;;;10430120;28;20053;-87
2023/07/23 17:11:31;;;;;;;4.72;3.03;;;;;;;;;;10436538;28;20033;-87
2023/07/23 17:16:33;;;;;;;4.70;2.95;;;;;;;;;;10431481;28;20445;-86
2023/07/23 17:21:34;;;;;;;3.78;2.88;;;;;;;;;;10437259;28;20041;-87
2023/07/23 17:26:35;;;;;;;5.10;3.45;;;;;;;;;;10432507;28;20029;-86
2023/07/23 17:31:36;;;;;;;5.53;3.22;;;;;;;;;;10433979;28;20033;-87
2023/07/23 17:36:37;;;;;;;6.55;3.42;;;;;;;;;;10441095;28;20038;-88
2023/07/23 17:41:38;;;;;;;6.00;3.83;;;;;;;;;;10442786;28;20037;-88
2023/07/23 17:46:42;;;;;;;6.10;3.22;;;;;;;;;;10445879;28;20056;-86
2023/07/23 17:51:43;;;;;;;5.75;3.20;;;;;;;;;;10443805;28;20650;-86
2023/07/23 17:56:44;;;;;;;6.50;3.60;;;;;;;;;;10447740;28;20025;-87
2023/07/23 18:01:48;;;;;;;4.28;3.20;;;;;;;;;;10435880;28;20722;-87
2023/07/23 18:06:49;;;;;;;5.13;3.83;;;;;;;;;;10467932;28;20658;-87
2023/07/23 18:11:56;;;;;;;4.97;3.08;;;;;;;;;;10458804;28;20033;-87
2023/07/23 18:16:57;;;;;;;7.45;3.88;;;;;;;;;;10481275;28;20060;-86
2023/07/23 18:21:58;;;;;;;4.85;3.65;;;;;;;;;;10464744;28;20041;-87
2023/07/23 18:26:59;;;;;;;6.15;3.92;;;;;;;;;;10490616;28;20480;-86
2023/07/23 18:32:00;;;;;;;6.10;4.20;;;;;;;;;;10487628;28;20031;-86
2023/07/23 18:37:01;;;;;;;7.40;4.22;;;;;;;;;;10471441;28;20047;-86
2023/07/23 18:42:02;;;;;;;6.57;4.20;;;;;;;;;;10466304;28;20115;-85
2023/07/23 18:47:06;;;;;;;4.88;3.50;;;;;;;;;;10470347;28;20035;-86
2023/07/23 18:52:07;;;;;;;5.32;3.85;;;;;;;;;;10456828;28;20032;-88
2023/07/23 18:57:08;;;;;;;5.68;3.63;;;;;;;;;;10457640;28;20032;-86
2023/07/23 19:02:09;;;;;;;5.50;3.67;;;;;;;;;;10458536;28;20038;-86
2023/07/23 19:07:11;;;;;;;6.07;3.63;;;;;;;;;;10470130;28;20052;-86
2023/07/23 19:12:12;;;;;;;13.95;3.65;;;;;;;;;;10482213;28;20517;-86
2023/07/23 19:17:13;;;;;;;5.90;3.72;;;;;;;;;;10480418;28;20049;-85
2023/07/23 19:22:14;;;;;;;6.00;3.30;;;;;;;;;;10458053;28;20032;-87
2023/07/23 19:27:15;;;;;;;5.38;3.20;;;;;;;;;;10449562;28;20039;-86
2023/07/23 19:32:16;;;;;;;6.07;3.63;;;;;;;;;;10485094;28;20036;-86
2023/07/23 19:37:17;;;;;;;6.15;3.90;;;;;;;;;;10488771;22;20059;-86
2023/07/23 19:42:18;;;;;;;5.40;3.38;;;;;;;;;;10552358;28;20555;-85
2023/07/23 19:47:19;;;;;;;6.43;4.00;;;;;;;;;;10533614;28;20019;-88
2023/07/23 19:52:20;;;;;;;6.00;3.47;;;;;;;;;;10564345;28;20031;-85
2023/07/23 19:57:21;;;;;;;5.78;3.28;;;;;;;;;;10542957;28;20028;-87
2023/07/23 20:02:22;;;;;;;6.47;3.40;;;;;;;;;;10547865;28;20040;-84
2023/07/23 20:07:23;;;;;;;5.28;3.40;;;;;;;;;;10551821;28;20028;-85
2023/07/23 20:12:24;;;;;;;5.50;3.30;;;;;;;;;;10551378;28;20039;-86
2023/07/23 20:17:26;;;;;;;6.57;3.25;;;;;;;;;;10527117;28;20032;-85
2023/07/23 20:22:27;;;;;;;6.18;3.33;;;;;;;;;;10565183;22;20066;-85
2023/07/23 20:27:28;;;;;;;5.68;3.35;;;;;;;;;;10551750;28;20035;-85
2023/07/23 20:32:29;;;;;;;5.78;3.53;;;;;;;;;;10528829;28;20032;-84
2023/07/23 20:37:30;;;;;;;9.10;4.07;;;;;;;;;;10566298;28;20226;-86
2023/07/23 20:42:32;;;;;;;5.95;3.88;;;;;;;;;;10536347;28;20068;-85
2023/07/23 20:47:32;;;;;;;5.30;3.30;;;;;;;;;;10533409;28;20491;-85
2023/07/23 20:52:33;;;;;;;6.45;3.58;;;;;;;;;;10566503;28;20032;-85
2023/07/23 20:57:35;;;;;;;7.18;3.97;;;;;;;;;;10530166;28;20047;-85
2023/07/23 21:02:36;;;;;;;4.63;3.47;;;;;;;;;;10532062;28;20027;-86
2023/07/23 21:07:38;;;;;;;5.30;3.58;;;;;;;;;;10562479;28;20024;-85
2023/07/23 21:12:39;;;;;;;6.25;3.22;;;;;;;;;;10525379;28;20032;-84
2023/07/23 21:17:51;;;;;;;5.50;3.53;;;;;;;;;;10546758;28;20085;-86
2023/07/23 21:22:53;;;;;;;9.93;3.67;;;;;;;;;;10525694;28;20105;-85
2023/07/23 21:27:54;;;;;;;6.35;3.90;;;;;;;;;;10533642;28;20081;-85
2023/07/23 21:32:55;;;;;;;6.63;4.45;;;;;;;;;;10522982;28;20134;-85
2023/07/23 21:37:56;;;;;;;7.00;4.40;;;;;;;;;;10520274;28;20035;-85
2023/07/23 21:42:58;;;;;;;9.30;5.50;;;;;;;;;;10518545;28;20040;-85
2023/07/23 21:48:00;;;;;;;7.78;4.80;;;;;;;;;;10515843;28;20086;-86
2023/07/23 21:53:01;;;;;;;6.47;4.53;;;;;;;;;;10528511;28;20032;-86
2023/07/23 21:58:02;;;;;;;7.95;4.43;;;;;;;;;;10531425;28;20372;-86
2023/07/23 22:03:03;;;;;;;7.25;4.03;;;;;;;;;;10531387;28;20028;-85
2023/07/23 22:08:04;;;;;;;7.30;4.30;;;;;;;;;;10532153;28;20073;-85
2023/07/23 22:13:05;;;;;;;6.65;4.47;;;;;;;;;;10525064;28;20119;-86
2023/07/23 22:18:06;;;;;;;5.97;3.90;;;;;;;;;;10530918;28;20043;-85
2023/07/23 22:23:07;;;;;;;7.50;4.25;;;;;;;;;;10532243;28;20062;-85
2023/07/23 22:28:08;;;;;;;8.98;4.32;;;;;;;;;;10520648;28;20100;-86
2023/07/23 22:33:09;;;;;;;6.90;4.03;;;;;;;;;;10528780;28;20028;-86
2023/07/23 22:38:10;;;;;;;6.70;4.00;;;;;;;;;;10523236;28;20047;-85
2023/07/23 22:43:14;;;;;;;6.25;4.32;;;;;;;;;;10526283;28;20039;-85
2023/07/23 22:48:15;;;;;;;4.70;3.55;;;;;;;;;;10522658;28;20016;-85
2023/07/23 22:53:16;;;;;;;5.10;3.65;;;;;;;;;;10527096;28;20020;-87
2023/07/23 22:58:17;;;;;;;7.03;4.22;;;;;;;;;;10528013;28;20750;-85
2023/07/23 23:03:18;;;;;;;5.78;4.05;;;;;;;;;;10517448;28;20032;-86
2023/07/23 23:08:19;;;;;;;5.53;4.10;;;;;;;;;;10519177;28;20035;-86
2023/07/23 23:13:20;;;;;;;8.55;4.35;;;;;;;;;;10521431;28;20295;-86
2023/07/23 23:18:21;;;;;;;6.43;4.13;;;;;;;;;;10514610;28;20509;-85
2023/07/23 23:23:22;;;;;;;8.52;4.53;;;;;;;;;;10520879;28;20048;-86
2023/07/23 23:28:23;;;;;;;6.53;3.70;;;;;;;;;;10526345;28;20020;-85
2023/07/23 23:33:24;;;;;;;6.35;4.15;;;;;;;;;;10528151;28;20043;-85
2023/07/23 23:38:25;;;;;;;6.63;3.97;;;;;;;;;;10548370;22;20056;-86
2023/07/23 23:43:26;;;;;;;6.40;3.42;;;;;;;;;;10543637;28;20032;-86
2023/07/23 23:48:27;;;;;;;5.78;3.75;;;;;;;;;;10541057;28;20137;-86
2023/07/23 23:53:28;;;;;;;7.45;3.65;;;;;;;;;;10556572;28;20558;-86
2023/07/23 23:58:29;;;;;;;7.38;4.00;;;;;;;;;;10554628;28;20036;-85
